Aeroporto :
LOGIN :

Iscrizione | Disclaimer

   EN    FR    IT 

 










Sommario :    VFR   VFR Marginale   IFR   IFR Intensivo   IFR Molto Intensivo
Visibilità : 
Base nubi : 
>= 8 km
>= 3000ft
5 / 8 km
1000 / 3000 ft
1500m / 5 km
500 / 1000 ft
800 / 1500m
200 / 500 ft
< 800m
< 200 ft
Simboli :   Temporali  Nebbia  Neve Forte  Precipitazioni Forti  Vento > 20 kt
SIGMETs :   Varie  Temporali  Ghiacco  Turbolenza  Onda orograficha  Ceneri Vulcaniche






- Altitudine del aeroporto : 53 ft
- Codice IATA : AGP


LEMG - Malaga

ULTIMO METAR :
  • 191830Z 11007KT 9999 FEW018 SCT025 BKN045 16/12 Q1028 NOSIG

METARs OBSOLETI :
  • 191800Z 10005KT 070V140 9999 SCT020 SCT048 16/13 Q1028 NOSIG
  • 191730Z 09005KT 030V160 9999 FEW020 BKN046 16/13 Q1028 NOSIG
  • 191700Z 10007KT 9999 FEW020 BKN043 16/12 Q1028 NOSIG
  • 191630Z 10008KT 070V130 9999 FEW020 BKN042 16/12 Q1028 NOSIG
  • 191600Z 10008KT 9999 FEW020 BKN045 16/12 Q1028 NOSIG
  • 191530Z 10008KT 9999 FEW020 BKN045 16/13 Q1028 NOSIG

TAF TAF LEMG
Valido dal 19 a 18 ore il 20 a 18 ore UTC


191700Z 1918/2018 11009KT 9999 FEW020 SCT040 TX18/2012Z TN11/2007Z
PROB30
TEMPO 1920/2004 BKN014
PROB40 2003/2010 29004KT



MetMap, La meteo Aeronautica in un colpo d'occhio ! - Copyright ORBIFLY Dicembre 2007 - Disclaimer

ORBIFLY MET'MAP TEAM :

Programmazione e sviluppo : Alexandra Zaïnal
Concezione : Baudouin d'Aumeries
Aiuto per la programmazione : Marc-Olivier Méhu
Supporto tecnico e logistico : Manuel Goepfert
Aiuto per la traduzione : Arnaldo La Scala

Contatto : metmap@orbifly.com




FONTI E CREDITI :

   NOAA